Time;durP1;ratioP1;P1;durP2;ratioP2;P2;SDS_P1;SDS_P2;PMS_P1;PMS_P2;Temp;Humidity;BMP_temperature;BMP_pressure;BME280_temperature;BME280_humidity;BME280_pressure;Samples;Min_cycle;Max_cycle;Signal;HPM_P1;HPM_P2
2022/07/07 00:00:38;;;;;;;2.00;0.80;;;16.10;99.90;;;;;;4957457;29;20276;-83
2022/07/07 00:03:04;;;;;;;2.35;0.90;;;16.00;99.90;;;;;;4957457;29;20189;-84
2022/07/07 00:05:29;;;;;;;2.72;0.75;;;16.00;99.90;;;;;;4958688;28;20177;-86
2022/07/07 00:07:55;;;;;;;1.83;0.85;;;15.90;99.90;;;;;;4958564;29;20893;-85
2022/07/07 00:10:21;;;;;;;3.35;1.20;;;15.90;99.90;;;;;;4990096;28;20191;-84
2022/07/07 00:12:46;;;;;;;2.47;0.80;;;16.00;99.90;;;;;;4995863;28;20211;-84
2022/07/07 00:15:12;;;;;;;1.90;0.80;;;16.00;99.90;;;;;;4995841;28;20187;-84
2022/07/07 00:17:38;;;;;;;3.42;0.88;;;16.00;99.90;;;;;;4997096;28;20610;-84
2022/07/07 00:20:05;;;;;;;2.85;0.70;;;16.00;99.90;;;;;;4997008;28;20255;-85
2022/07/07 00:22:31;;;;;;;4.88;0.82;;;16.00;99.90;;;;;;4996032;28;20281;-85
2022/07/07 00:24:57;;;;;;;1.10;0.70;;;16.00;99.90;;;;;;4996681;28;20203;-85
2022/07/07 00:27:22;;;;;;;2.22;0.80;;;16.00;99.90;;;;;;4996964;28;20191;-85
2022/07/07 00:29:48;;;;;;;0.95;0.70;;;16.00;99.90;;;;;;4997080;28;20171;-84
2022/07/07 00:32:14;;;;;;;2.38;0.70;;;16.00;99.90;;;;;;4996853;28;20258;-84
2022/07/07 00:34:39;;;;;;;2.95;0.93;;;16.00;99.90;;;;;;4996816;28;20514;-82
2022/07/07 00:37:05;;;;;;;4.88;0.90;;;15.90;99.90;;;;;;4996845;28;20259;-85
2022/07/07 00:39:31;;;;;;;4.00;0.93;;;15.90;99.90;;;;;;4987086;28;20215;-83
2022/07/07 00:41:57;;;;;;;3.30;0.90;;;15.90;99.90;;;;;;4977186;28;20635;-84
2022/07/07 00:44:23;;;;;;;1.58;0.80;;;15.80;99.90;;;;;;4977291;28;20626;-85
2022/07/07 00:46:53;;;;;;;3.88;0.85;;;15.80;99.90;;;;;;4975582;28;20176;-83
2022/07/07 00:49:20;;;;;;;2.50;0.90;;;15.70;99.90;;;;;;4977180;28;20195;-83
2022/07/07 00:51:45;;;;;;;1.80;0.85;;;15.70;99.90;;;;;;4977430;28;20179;-84
2022/07/07 00:54:11;;;;;;;3.58;1.08;;;15.70;99.90;;;;;;4976590;28;20586;-84
2022/07/07 00:56:38;;;;;;;2.40;1.10;;;15.70;99.90;;;;;;4976932;28;20247;-85
2022/07/07 00:59:07;;;;;;;2.95;1.00;;;15.60;99.90;;;;;;4975588;28;20231;-84
2022/07/07 01:01:42;;;;;;;2.78;1.20;;;15.60;99.90;;;;;;4976088;28;20205;-83
2022/07/07 01:04:10;;;;;;;3.53;1.10;;;15.60;99.90;;;;;;4977003;28;20161;-83
2022/07/07 01:06:36;;;;;;;4.70;1.10;;;15.60;99.90;;;;;;4975422;28;20236;-85
2022/07/07 01:09:02;;;;;;;4.00;1.30;;;15.50;99.90;;;;;;4981884;28;20180;-84
2022/07/07 01:11:53;;;;;;;4.80;1.25;;;15.60;99.90;;;;;;4994958;28;20212;-85
2022/07/07 01:14:20;;;;;;;3.70;1.13;;;15.50;99.90;;;;;;4996023;28;20208;-85
2022/07/07 01:16:46;;;;;;;2.35;0.95;;;15.50;99.90;;;;;;4994818;28;20569;-86
2022/07/07 01:19:12;;;;;;;4.07;1.33;;;15.50;99.90;;;;;;4994833;28;20226;-85
2022/07/07 01:21:47;;;;;;;5.50;1.48;;;15.50;99.90;;;;;;4994835;28;20176;-86
2022/07/07 01:24:12;;;;;;;3.22;1.40;;;15.50;99.90;;;;;;4995609;28;20167;-85
2022/07/07 01:26:39;;;;;;;2.60;1.40;;;15.50;99.90;;;;;;4994605;28;20267;-85
2022/07/07 01:29:05;;;;;;;2.35;1.10;;;15.50;99.90;;;;;;4994680;28;20226;-87
2022/07/07 01:31:31;;;;;;;5.10;1.20;;;15.50;99.90;;;;;;4994726;28;20184;-86
2022/07/07 01:33:57;;;;;;;3.00;1.33;;;15.50;99.90;;;;;;4994493;28;20598;-86
2022/07/07 01:36:22;;;;;;;2.67;1.20;;;15.40;99.90;;;;;;4994516;28;20175;-85
2022/07/07 01:38:48;;;;;;;4.63;1.50;;;15.40;99.90;;;;;;4991803;28;20501;-87
2022/07/07 01:41:14;;;;;;;2.40;1.40;;;15.40;99.90;;;;;;4974813;28;20220;-85
2022/07/07 01:43:39;;;;;;;2.97;1.42;;;15.30;99.90;;;;;;4976228;28;20185;-87
2022/07/07 01:46:05;;;;;;;3.20;1.75;;;15.30;99.90;;;;;;4974911;28;20231;-85
2022/07/07 01:48:32;;;;;;;3.58;1.75;;;15.30;99.90;;;;;;4976233;28;20179;-86
2022/07/07 01:50:58;;;;;;;2.85;1.80;;;15.20;99.90;;;;;;4975975;28;20194;-84
2022/07/07 01:53:24;;;;;;;3.80;1.98;;;15.20;99.90;;;;;;4974566;28;20631;-83
2022/07/07 01:55:50;;;;;;;9.10;2.35;;;15.20;99.90;;;;;;4974322;28;20231;-85
2022/07/07 01:58:15;;;;;;;4.03;2.15;;;15.10;99.90;;;;;;4974597;28;20227;-85
2022/07/07 02:00:41;;;;;;;4.85;2.20;;;15.20;99.90;;;;;;4975924;28;20176;-86
2022/07/07 02:03:07;;;;;;;3.72;2.30;;;15.20;99.90;;;;;;4975868;28;20619;-85
2022/07/07 02:05:32;;;;;;;7.20;2.28;;;15.10;99.90;;;;;;4974382;28;20204;-86
2022/07/07 02:07:58;;;;;;;3.92;2.25;;;15.20;99.90;;;;;;4974387;28;20188;-86
2022/07/07 02:13:08;;;;;;;5.82;2.25;;;15.20;99.90;;;;;;4995180;28;20206;-85
2022/07/07 02:15:34;;;;;;;4.18;2.33;;;15.10;99.90;;;;;;4993569;28;20184;-85
2022/07/07 02:17:59;;;;;;;2.53;2.33;;;15.10;99.90;;;;;;4995032;28;20180;-85
2022/07/07 02:20:26;;;;;;;7.95;2.72;;;15.10;99.90;;;;;;4994722;28;20176;-86
2022/07/07 02:22:52;;;;;;;4.65;2.83;;;15.10;99.90;;;;;;4994899;28;20184;-84
2022/07/07 02:25:18;;;;;;;2.78;2.47;;;15.10;99.90;;;;;;4993331;28;20175;-84
2022/07/07 02:27:43;;;;;;;7.43;2.50;;;15.10;99.90;;;;;;4993539;28;20622;-85
2022/07/07 02:30:09;;;;;;;4.38;2.25;;;15.00;99.90;;;;;;4994859;28;20630;-84
2022/07/07 02:32:35;;;;;;;4.10;2.78;;;15.00;99.90;;;;;;4993375;28;20294;-84
2022/07/07 02:35:01;;;;;;;2.65;2.38;;;15.00;99.90;;;;;;4994582;28;20176;-83
2022/07/07 02:37:27;;;;;;;7.15;2.70;;;15.00;99.90;;;;;;4993351;28;20183;-88
2022/07/07 02:39:53;;;;;;;4.75;2.83;;;15.00;99.90;;;;;;4980551;28;20189;-85
2022/07/07 02:42:19;;;;;;;5.82;2.70;;;14.90;99.90;;;;;;4974130;28;20518;-85
2022/07/07 02:44:44;;;;;;;3.33;2.45;;;14.90;99.90;;;;;;4975157;28;20255;-85
2022/07/07 02:47:10;;;;;;;5.22;2.70;;;15.00;99.90;;;;;;4954919;28;20644;-83
2022/07/07 02:49:36;;;;;;;6.13;2.58;;;15.00;99.90;;;;;;4955887;28;20177;-86
2022/07/07 02:52:03;;;;;;;3.25;2.30;;;14.90;99.90;;;;;;4955846;28;20247;-86
2022/07/07 02:54:29;;;;;;;3.58;2.65;;;14.90;99.90;;;;;;4954099;29;20217;-86
2022/07/07 02:56:54;;;;;;;3.05;2.65;;;15.00;99.90;;;;;;4954651;29;20482;-85
2022/07/07 02:59:20;;;;;;;5.40;3.13;;;14.90;99.90;;;;;;4954518;29;20188;-84
2022/07/07 03:01:46;;;;;;;4.72;2.92;;;14.90;99.90;;;;;;4954490;29;20618;-83
2022/07/07 03:04:11;;;;;;;3.45;2.53;;;15.00;99.90;;;;;;4955538;28;20555;-82
2022/07/07 03:06:37;;;;;;;4.15;2.67;;;15.00;99.90;;;;;;4955591;28;20201;-86
2022/07/07 03:09:03;;;;;;;3.38;2.55;;;15.00;99.90;;;;;;4978616;28;20184;-87
2022/07/07 03:11:28;;;;;;;3.15;2.60;;;14.90;99.90;;;;;;4963830;28;20246;-85
2022/07/07 03:13:54;;;;;;;3.30;2.83;;;14.90;99.90;;;;;;4975705;28;20227;-89
2022/07/07 03:16:20;;;;;;;3.67;2.75;;;14.90;99.90;;;;;;4970401;28;20642;-85
2022/07/07 03:18:45;;;;;;;3.65;2.67;;;14.90;99.90;;;;;;4989624;28;20191;-83
2022/07/07 03:21:11;;;;;;;4.07;2.70;;;14.90;99.90;;;;;;4974888;28;20180;-86
2022/07/07 03:23:37;;;;;;;6.00;3.33;;;15.00;99.90;;;;;;4976008;28;20180;-84
2022/07/07 03:26:02;;;;;;;4.70;3.42;;;14.90;99.90;;;;;;4978442;28;20622;-87
2022/07/07 03:28:28;;;;;;;3.83;2.92;;;14.90;99.90;;;;;;4978434;28;20475;-84
2022/07/07 03:30:54;;;;;;;3.05;2.67;;;14.90;99.90;;;;;;4978213;28;20661;-85
2022/07/07 03:33:19;;;;;;;4.18;3.47;;;14.90;99.90;;;;;;4978291;28;20215;-85
2022/07/07 03:35:45;;;;;;;7.60;3.10;;;14.90;99.90;;;;;;4976743;28;20184;-84
2022/07/07 03:38:11;;;;;;;4.63;2.80;;;14.90;99.90;;;;;;4978051;28;20239;-84
2022/07/07 03:40:37;;;;;;;4.88;2.83;;;14.90;99.90;;;;;;4975920;28;20732;-85
2022/07/07 03:43:02;;;;;;;3.67;2.95;;;14.90;99.90;;;;;;4977961;28;20268;-84
2022/07/07 03:45:28;;;;;;;5.28;2.85;;;14.90;99.90;;;;;;4978277;28;20169;-85
2022/07/07 03:47:54;;;;;;;6.47;2.97;;;14.90;99.90;;;;;;4977124;28;20196;-85
2022/07/07 03:50:20;;;;;;;3.63;2.78;;;15.00;99.90;;;;;;4978098;28;20235;-88
2022/07/07 03:52:45;;;;;;;3.45;3.10;;;15.00;99.90;;;;;;4977146;28;20274;-87
2022/07/07 03:55:11;;;;;;;7.38;3.90;;;15.00;99.90;;;;;;4976860;28;20184;-88
2022/07/07 03:57:38;;;;;;;3.15;2.83;;;15.00;99.90;;;;;;4978558;28;20176;-86
2022/07/07 04:00:05;;;;;;;5.05;3.42;;;15.00;99.90;;;;;;4978120;28;20204;-84
2022/07/07 04:02:30;;;;;;;4.32;3.67;;;15.00;99.90;;;;;;4977987;28;20520;-84
2022/07/07 04:04:56;;;;;;;4.97;3.28;;;15.00;99.90;;;;;;4976330;28;20207;-86
2022/07/07 04:07:22;;;;;;;4.75;3.55;;;15.00;99.90;;;;;;4978032;28;20172;-86
2022/07/07 04:09:48;;;;;;;5.22;3.40;;;15.00;99.90;;;;;;4988012;28;20188;-89
2022/07/07 04:12:13;;;;;;;4.53;3.45;;;15.00;99.90;;;;;;4992691;28;20259;-85
2022/07/07 04:14:39;;;;;;;4.70;4.10;;;15.00;99.90;;;;;;4977651;28;20255;-84
2022/07/07 04:17:05;;;;;;;7.20;3.60;;;15.00;99.90;;;;;;4976425;28;20270;-84
2022/07/07 04:19:31;;;;;;;4.43;3.97;;;15.00;99.90;;;;;;4977689;28;20183;-84
2022/07/07 04:21:56;;;;;;;6.50;3.97;;;15.00;99.90;;;;;;4977719;28;20200;-87
2022/07/07 04:24:22;;;;;;;7.18;3.92;;;15.00;99.90;;;;;;4976000;28;20219;-84
2022/07/07 04:26:48;;;;;;;4.97;3.75;;;15.00;99.90;;;;;;4976310;28;20271;-85
2022/07/07 04:29:14;;;;;;;5.03;3.88;;;15.10;99.90;;;;;;4977607;28;20185;-84
2022/07/07 04:31:44;;;;;;;6.18;3.80;;;15.10;99.90;;;;;;4976180;28;20181;-85
2022/07/07 04:34:12;;;;;;;6.38;3.55;;;15.10;99.90;;;;;;4975846;28;20212;-85
2022/07/07 04:36:38;;;;;;;8.32;4.28;;;15.10;99.90;;;;;;4976533;28;20165;-86
2022/07/07 04:39:03;;;;;;;7.10;4.22;;;15.10;99.90;;;;;;4981809;28;20202;-87
2022/07/07 04:41:29;;;;;;;6.18;4.18;;;15.10;99.90;;;;;;4995224;28;20235;-86
2022/07/07 04:43:55;;;;;;;6.88;4.32;;;15.10;99.90;;;;;;4996655;28;20180;-84
2022/07/07 04:46:20;;;;;;;5.90;4.88;;;15.10;99.90;;;;;;4996524;28;20618;-83
2022/07/07 04:48:46;;;;;;;9.43;4.60;;;15.20;99.90;;;;;;4996700;28;20215;-85
2022/07/07 04:51:12;;;;;;;7.25;4.47;;;15.20;99.90;;;;;;4996730;28;20182;-86
2022/07/07 04:53:38;;;;;;;11.25;4.70;;;15.10;99.90;;;;;;4996574;28;20235;-85
2022/07/07 04:56:04;;;;;;;6.50;4.45;;;15.20;99.90;;;;;;4996299;28;20164;-87
2022/07/07 04:58:30;;;;;;;5.78;4.30;;;15.10;99.90;;;;;;4977354;28;20287;-87
2022/07/07 05:00:56;;;;;;;6.13;4.85;;;15.20;99.90;;;;;;4977219;28;20706;-88
2022/07/07 05:03:21;;;;;;;8.50;4.63;;;15.10;99.90;;;;;;4976055;28;20234;-86
2022/07/07 05:05:47;;;;;;;5.50;4.07;;;15.10;99.90;;;;;;4976023;28;20215;-85
2022/07/07 05:08:13;;;;;;;7.13;4.80;;;15.20;99.90;;;;;;4977064;28;20203;-86
2022/07/07 05:10:38;;;;;;;5.20;4.32;;;15.20;99.90;;;;;;4995256;28;20187;-85
2022/07/07 05:13:05;;;;;;;7.05;4.57;;;15.20;99.90;;;;;;4995047;28;20211;-88
2022/07/07 05:15:30;;;;;;;7.38;4.80;;;15.20;99.90;;;;;;4995992;28;20601;-86
2022/07/07 05:17:56;;;;;;;6.95;5.65;;;15.20;99.90;;;;;;4994925;28;20194;-84
2022/07/07 05:20:22;;;;;;;5.90;4.72;;;15.10;99.90;;;;;;4996490;28;20168;-88
2022/07/07 05:22:48;;;;;;;7.07;5.20;;;15.10;99.90;;;;;;4995259;28;20172;-88
2022/07/07 05:25:13;;;;;;;5.65;4.90;;;15.10;99.90;;;;;;4994697;28;20180;-90
2022/07/07 05:27:39;;;;;;;8.15;5.20;;;15.10;99.90;;;;;;4995277;28;20241;-90
2022/07/07 05:30:05;;;;;;;6.03;4.75;;;15.00;99.90;;;;;;4994953;28;20183;-87
2022/07/07 05:32:31;;;;;;;7.22;5.28;;;15.10;99.90;;;;;;4996107;28;20172;-86
2022/07/07 05:34:56;;;;;;;5.85;4.63;;;15.10;99.90;;;;;;4994685;28;20188;-87
2022/07/07 05:37:22;;;;;;;7.05;5.20;;;15.10;99.90;;;;;;4994763;28;20183;-88
2022/07/07 05:39:48;;;;;;;5.82;4.78;;;15.10;99.90;;;;;;4983678;28;20185;-86
2022/07/07 05:42:13;;;;;;;5.05;4.50;;;15.10;99.90;;;;;;4975790;28;20173;-86
2022/07/07 05:44:39;;;;;;;4.90;4.40;;;15.20;99.90;;;;;;4976226;28;20213;-88
2022/07/07 05:47:05;;;;;;;5.03;4.18;;;15.20;99.90;;;;;;4975907;28;20216;-85
2022/07/07 05:49:31;;;;;;;5.68;4.65;;;15.20;99.90;;;;;;4974894;28;20180;-86
2022/07/07 05:51:56;;;;;;;4.80;4.22;;;15.30;99.90;;;;;;4974934;28;20185;-85
2022/07/07 05:54:22;;;;;;;4.78;4.30;;;15.30;99.90;;;;;;4974805;28;20220;-85
2022/07/07 05:56:48;;;;;;;4.22;3.83;;;15.30;99.90;;;;;;4975679;28;20176;-84
2022/07/07 05:59:13;;;;;;;5.45;4.65;;;15.30;99.90;;;;;;4974736;28;20184;-84
2022/07/07 06:01:39;;;;;;;8.05;4.55;;;15.30;99.90;;;;;;4975859;28;20264;-87
2022/07/07 06:04:06;;;;;;;4.63;4.10;;;15.30;99.90;;;;;;4974706;28;20185;-85
2022/07/07 06:06:32;;;;;;;4.88;4.38;;;15.30;99.90;;;;;;4975898;28;20168;-84
2022/07/07 06:08:57;;;;;;;4.60;4.20;;;15.30;99.90;;;;;;4979582;28;20191;-85
2022/07/07 06:11:23;;;;;;;7.10;4.85;;;15.30;99.90;;;;;;4994921;28;20246;-89
2022/07/07 06:13:49;;;;;;;6.28;4.88;;;15.30;99.90;;;;;;4995188;28;20207;-88
2022/07/07 06:16:15;;;;;;;6.53;4.85;;;15.30;99.90;;;;;;4994082;28;20665;-88
2022/07/07 06:18:40;;;;;;;5.22;4.72;;;15.30;99.90;;;;;;4993013;28;20183;-90
2022/07/07 06:21:06;;;;;;;6.13;5.40;;;15.30;99.90;;;;;;4982226;28;20245;-90
2022/07/07 06:23:32;;;;;;;7.53;5.28;;;15.30;99.90;;;;;;4982421;28;20180;-84
2022/07/07 06:26:02;;;;;;;5.40;4.88;;;15.30;99.90;;;;;;4977625;28;20685;-88
2022/07/07 06:28:28;;;;;;;6.47;4.70;;;15.30;99.90;;;;;;4974076;28;20279;-85
2022/07/07 06:30:54;;;;;;;9.02;5.15;;;15.30;99.90;;;;;;4973404;28;20680;-91
2022/07/07 06:33:20;;;;;;;5.93;4.97;;;15.30;99.90;;;;;;4987751;28;20302;-86
2022/07/07 06:35:45;;;;;;;5.68;5.00;;;15.30;99.90;;;;;;4993906;28;20171;-85
2022/07/07 06:38:11;;;;;;;6.07;5.20;;;15.40;99.90;;;;;;4993845;28;20234;-88
2022/07/07 06:40:37;;;;;;;5.60;5.05;;;15.40;99.90;;;;;;4976059;28;20228;-87
2022/07/07 06:43:02;;;;;;;6.45;4.97;;;15.40;99.90;;;;;;4975453;28;20177;-88
2022/07/07 06:45:29;;;;;;;5.25;4.75;;;15.40;99.90;;;;;;4975341;28;20181;-90
2022/07/07 06:47:55;;;;;;;5.38;4.85;;;15.50;99.90;;;;;;4974369;28;20655;-88
2022/07/07 06:50:21;;;;;;;7.70;5.55;;;15.50;99.90;;;;;;4973439;28;20193;-87
2022/07/07 06:52:46;;;;;;;5.72;5.05;;;15.50;99.90;;;;;;4975532;28;20283;-89
2022/07/07 06:55:12;;;;;;;5.90;5.30;;;15.50;99.90;;;;;;4973934;28;20195;-87
2022/07/07 06:57:38;;;;;;;7.82;5.13;;;15.60;99.90;;;;;;4973275;28;20184;-89
2022/07/07 07:00:05;;;;;;;5.63;5.13;;;15.50;99.90;;;;;;4974689;28;20173;-94
2022/07/07 07:02:30;;;;;;;8.10;5.57;;;15.50;99.90;;;;;;5006190;28;20268;-86
2022/07/07 07:04:56;;;;;;;8.32;5.63;;;15.50;99.90;;;;;;4993302;28;20625;-84
2022/07/07 07:07:22;;;;;;;6.13;5.53;;;15.50;99.90;;;;;;4979673;28;20181;-86
2022/07/07 07:09:48;;;;;;;5.97;5.35;;;15.50;99.90;;;;;;4985149;28;20194;-85
2022/07/07 07:12:14;;;;;;;6.88;6.05;;;15.50;99.90;;;;;;4994465;28;20234;-90
2022/07/07 07:14:39;;;;;;;5.22;4.70;;;15.60;99.90;;;;;;4993191;28;20222;-85
2022/07/07 07:17:05;;;;;;;5.20;4.70;;;15.60;99.90;;;;;;4991399;28;20178;-87
2022/07/07 07:19:30;;;;;;;5.45;4.93;;;15.60;99.90;;;;;;4973040;28;20180;-86
2022/07/07 07:21:56;;;;;;;5.85;5.35;;;15.60;99.90;;;;;;4973302;28;20284;-86
2022/07/07 07:24:22;;;;;;;5.80;4.70;;;15.60;99.90;;;;;;4973664;28;20224;-88
2022/07/07 07:26:47;;;;;;;5.55;4.85;;;15.60;99.90;;;;;;4974617;28;20631;-86
2022/07/07 07:29:14;;;;;;;5.45;4.70;;;15.60;99.90;;;;;;4973747;28;20204;-87
2022/07/07 07:31:39;;;;;;;5.50;4.75;;;15.60;99.90;;;;;;4973597;28;20184;-89
2022/07/07 07:34:05;;;;;;;5.95;4.90;;;15.60;99.90;;;;;;4974996;28;20200;-91
2022/07/07 07:36:31;;;;;;;5.88;5.18;;;15.60;99.90;;;;;;4973498;28;20608;-85
2022/07/07 07:38:58;;;;;;;5.20;4.70;;;15.60;99.90;;;;;;4973824;28;20619;-87
2022/07/07 07:41:23;;;;;;;8.38;5.20;;;15.60;99.90;;;;;;4974233;28;20230;-85
2022/07/07 07:43:49;;;;;;;6.85;5.10;;;15.70;99.90;;;;;;4974465;28;20184;-85
2022/07/07 07:46:16;;;;;;;7.15;5.38;;;15.70;99.90;;;;;;4974504;28;20181;-87
2022/07/07 07:48:41;;;;;;;7.57;5.57;;;15.90;99.90;;;;;;4974639;28;20247;-85
2022/07/07 07:51:07;;;;;;;7.60;5.32;;;16.00;99.90;;;;;;4974364;28;20260;-84
2022/07/07 07:53:33;;;;;;;7.60;5.82;;;16.20;99.90;;;;;;4974444;28;20208;-84
2022/07/07 07:55:59;;;;;;;9.07;5.65;;;16.40;99.90;;;;;;4973990;28;20635;-84
2022/07/07 07:58:25;;;;;;;5.20;4.70;;;16.50;99.90;;;;;;4972485;28;20207;-83
2022/07/07 08:00:50;;;;;;;4.60;4.20;;;16.50;99.90;;;;;;4972449;28;20180;-84
2022/07/07 08:03:16;;;;;;;5.20;4.55;;;16.50;99.90;;;;;;4973587;28;20195;-85
2022/07/07 08:05:42;;;;;;;5.25;4.68;;;16.50;99.90;;;;;;4973723;28;20172;-83
2022/07/07 08:08:08;;;;;;;6.05;4.47;;;16.50;99.90;;;;;;4973007;28;20535;-84
2022/07/07 08:10:33;;;;;;;5.90;4.70;;;16.50;99.90;;;;;;4993745;28;20194;-86
2022/07/07 08:12:59;;;;;;;6.45;5.28;;;16.50;99.90;;;;;;4995395;28;20717;-83
2022/07/07 08:15:25;;;;;;;5.82;5.22;;;16.50;99.90;;;;;;4996833;28;20546;-85
2022/07/07 08:17:52;;;;;;;5.15;4.75;;;16.50;99.90;;;;;;4994993;28;20634;-84
2022/07/07 08:20:18;;;;;;;4.90;4.40;;;16.50;99.90;;;;;;4995843;28;20192;-84
2022/07/07 08:22:44;;;;;;;6.03;4.47;;;16.50;99.90;;;;;;4995822;28;20243;-85
2022/07/07 08:25:10;;;;;;;5.13;4.70;;;16.60;99.90;;;;;;4996409;28;20180;-84
2022/07/07 08:27:36;;;;;;;6.07;5.18;;;16.70;99.90;;;;;;4991024;28;20263;-86
2022/07/07 08:30:01;;;;;;;6.18;5.35;;;16.90;99.90;;;;;;4977072;28;20252;-86
2022/07/07 08:32:27;;;;;;;5.63;5.13;;;17.00;99.90;;;;;;4976048;28;20196;-84
2022/07/07 08:34:53;;;;;;;7.95;5.18;;;17.20;99.90;;;;;;4975966;28;20220;-85
2022/07/07 08:37:18;;;;;;;5.88;5.00;;;17.40;99.90;;;;;;4977433;28;20255;-83
2022/07/07 08:39:44;;;;;;;7.65;5.43;;;17.80;99.90;;;;;;4988144;28;20569;-86
2022/07/07 08:42:11;;;;;;;5.15;4.68;;;18.10;99.90;;;;;;4996271;28;20176;-85
2022/07/07 08:44:37;;;;;;;6.40;4.93;;;18.40;99.90;;;;;;4995937;28;20180;-86
2022/07/07 08:47:03;;;;;;;7.00;4.47;;;18.70;99.90;;;;;;4994098;28;20207;-85
2022/07/07 08:49:29;;;;;;;3.45;3.15;;;18.80;99.90;;;;;;4993271;28;20184;-84
2022/07/07 08:51:57;;;;;;;7.05;3.22;;;18.70;99.90;;;;;;4976755;28;20184;-86
2022/07/07 08:54:25;;;;;;;4.43;3.10;;;18.50;99.90;;;;;;4975575;28;20227;-85
2022/07/07 08:56:52;;;;;;;5.88;3.30;;;18.50;99.90;;;;;;4976797;28;20203;-85
2022/07/07 08:59:18;;;;;;;3.83;3.20;;;18.70;99.90;;;;;;4975808;28;20234;-85
2022/07/07 09:01:55;;;;;;;3.33;2.75;;;18.90;99.90;;;;;;4975745;28;20181;-86
2022/07/07 09:04:21;;;;;;;2.83;2.58;;;19.10;99.90;;;;;;4986636;28;20190;-85
2022/07/07 09:06:58;;;;;;;2.20;2.00;;;19.00;99.90;;;;;;4996209;28;20175;-85
2022/07/07 09:09:38;;;;;;;2.80;1.92;;;18.80;99.90;;;;;;4986685;28;20661;-86
2022/07/07 09:12:05;;;;;;;1.98;1.88;;;18.50;99.90;;;;;;4976710;28;20189;-86
2022/07/07 09:14:54;;;;;;;2.15;1.95;;;18.30;99.90;;;;;;4976699;28;20209;-85
2022/07/07 09:17:31;;;;;;;2.22;2.00;;;18.10;99.90;;;;;;4976044;28;20518;-86
2022/07/07 09:20:03;;;;;;;1.80;1.67;;;18.00;99.90;;;;;;4976462;28;20632;-88
2022/07/07 09:22:48;;;;;;;1.90;1.70;;;18.00;99.90;;;;;;4975856;28;20177;-86
2022/07/07 09:25:25;;;;;;;3.58;1.70;;;17.90;99.90;;;;;;4976363;28;20228;-85
2022/07/07 09:27:58;;;;;;;6.38;1.50;;;17.80;99.90;;;;;;4976465;28;20329;-85
2022/07/07 09:30:31;;;;;;;6.22;2.03;;;17.80;99.90;;;;;;4976559;28;20173;-86
2022/07/07 09:32:58;;;;;;;1.60;1.50;;;17.80;99.90;;;;;;4976377;28;20214;-87
2022/07/07 09:38:14;;;;;;;1.67;1.58;;;17.70;99.90;;;;;;4976328;28;20207;-87
2022/07/07 09:40:54;;;;;;;2.17;1.98;;;17.70;99.90;;;;;;4980764;28;20240;-86
2022/07/07 09:43:21;;;;;;;2.35;1.70;;;17.70;99.90;;;;;;4975071;28;20188;-86
2022/07/07 09:46:08;;;;;;;3.53;1.70;;;17.80;99.90;;;;;;4974823;28;20185;-85
2022/07/07 09:48:36;;;;;;;2.60;1.48;;;17.80;99.90;;;;;;4974455;28;20189;-88
2022/07/07 09:51:16;;;;;;;1.58;1.48;;;18.10;99.90;;;;;;4975889;28;20181;-86
2022/07/07 09:54:00;;;;;;;3.28;1.90;;;18.60;99.90;;;;;;4976053;28;20591;-86
2022/07/07 09:56:33;;;;;;;2.00;1.75;;;19.00;99.90;;;;;;4973977;28;20525;-88
2022/07/07 09:59:01;;;;;;;1.27;1.17;;;19.40;99.90;;;;;;4974953;28;20176;-90
2022/07/07 10:01:31;;;;;;;2.70;1.40;;;19.50;99.90;;;;;;4976062;28;20870;-88
2022/07/07 10:03:59;;;;;;;2.03;1.20;;;19.60;99.90;;;;;;4975042;28;20194;-91
2022/07/07 10:06:27;;;;;;;1.50;1.40;;;19.60;99.90;;;;;;4975014;28;20184;-89
2022/07/07 10:09:10;;;;;;;3.75;1.13;;;19.70;99.90;;;;;;4986924;28;20196;-90
2022/07/07 10:11:40;;;;;;;1.83;1.30;;;19.50;99.90;;;;;;4975166;28;20177;-90
2022/07/07 10:14:23;;;;;;;1.23;1.00;;;19.30;99.90;;;;;;4975213;28;20267;-92
2022/07/07 10:16:54;;;;;;;1.85;1.13;;;19.20;99.90;;;;;;4974921;28;20177;-89
2022/07/07 10:19:25;;;;;;;1.85;0.98;;;19.10;99.90;;;;;;4988223;28;20533;-91
2022/07/07 10:21:53;;;;;;;3.05;1.10;;;19.10;99.90;;;;;;4986575;28;20181;-90
2022/07/07 10:24:20;;;;;;;2.63;0.80;;;19.30;99.90;;;;;;4976147;28;20221;-93
2022/07/07 10:26:49;;;;;;;3.10;0.80;;;19.40;99.90;;;;;;4990935;28;20181;-92
2022/07/07 10:29:16;;;;;;;1.85;0.82;;;19.40;99.90;;;;;;4975876;28;20682;-92
2022/07/07 10:31:50;;;;;;;1.77;0.70;;;19.30;99.90;;;;;;4990827;28;20199;-90
2022/07/07 10:34:16;;;;;;;0.70;0.70;;;19.10;99.90;;;;;;4974927;28;20215;-91
2022/07/07 10:36:51;;;;;;;1.20;0.90;;;19.00;99.90;;;;;;4973853;28;20181;-93
2022/07/07 10:39:26;;;;;;;2.05;1.00;;;19.10;99.90;;;;;;4982107;28;20572;-90
2022/07/07 10:41:59;;;;;;;1.77;1.25;;;19.20;99.90;;;;;;4993943;28;20235;-88
2022/07/07 10:44:26;;;;;;;2.03;1.10;;;19.40;99.90;;;;;;4993970;28;20176;-91
2022/07/07 10:47:05;;;;;;;2.53;1.10;;;19.60;99.90;;;;;;4976608;28;20177;-92
2022/07/07 10:49:41;;;;;;;1.33;1.20;;;19.70;99.90;;;;;;4976258;28;20188;-94
2022/07/07 10:52:13;;;;;;;2.20;1.00;;;20.00;99.90;;;;;;4994236;28;20652;-95
2022/07/07 10:54:41;;;;;;;1.00;0.90;;;20.10;99.90;;;;;;4993804;28;20220;-89
2022/07/07 10:57:18;;;;;;;1.20;0.90;;;20.00;99.90;;;;;;4980051;28;20192;-90
2022/07/07 11:00:00;;;;;;;1.02;0.80;;;19.80;99.90;;;;;;4974376;28;20176;-95
2022/07/07 11:02:36;;;;;;;1.05;0.75;;;19.40;99.90;;;;;;4973879;28;20176;-87
2022/07/07 11:05:30;;;;;;;1.60;0.80;;;19.10;99.90;;;;;;4974053;28;20603;-89
2022/07/07 11:07:56;;;;;;;2.00;0.80;;;18.80;99.90;;;;;;4974155;28;20181;-88
2022/07/07 11:10:23;;;;;;;2.95;0.85;;;18.80;99.90;;;;;;4990277;28;20180;-88
2022/07/07 11:12:52;;;;;;;1.30;0.98;;;18.90;99.90;;;;;;4975859;28;20259;-84
2022/07/07 11:15:21;;;;;;;2.25;0.88;;;19.00;99.90;;;;;;4981473;28;20184;-84
2022/07/07 11:17:55;;;;;;;1.35;1.00;;;19.00;99.90;;;;;;4978992;28;20282;-84
2022/07/07 11:20:26;;;;;;;1.60;1.08;;;19.10;99.90;;;;;;4981318;28;20183;-84
2022/07/07 11:22:54;;;;;;;1.90;0.90;;;19.20;99.90;;;;;;4979708;28;20280;-85
2022/07/07 11:25:21;;;;;;;1.27;1.00;;;19.40;99.90;;;;;;4986490;28;20191;-91
2022/07/07 11:27:49;;;;;;;3.58;1.00;;;19.80;99.90;;;;;;4982980;28;20263;-91
2022/07/07 11:30:20;;;;;;;1.42;1.00;;;20.20;99.90;;;;;;4985772;28;20184;-93
2022/07/07 11:32:45;;;;;;;1.08;0.98;;;20.40;99.90;;;;;;4983593;28;20250;-93
2022/07/07 11:35:13;;;;;;;2.92;1.10;;;20.30;99.90;;;;;;4989521;28;20622;-93
2022/07/07 11:37:45;;;;;;;5.85;1.23;;;20.10;99.90;;;;;;4981360;28;20180;-93
2022/07/07 11:40:14;;;;;;;1.20;1.08;;;19.70;99.90;;;;;;4982334;28;20240;-94
2022/07/07 11:42:43;;;;;;;1.35;1.20;;;19.40;99.90;;;;;;4977846;28;20176;-90
2022/07/07 11:45:26;;;;;;;3.58;1.45;;;19.20;99.90;;;;;;4982037;28;20191;-87
2022/07/07 11:47:58;;;;;;;3.35;1.40;;;19.00;99.90;;;;;;4981851;28;20185;-85
2022/07/07 11:50:31;;;;;;;4.15;1.30;;;18.90;99.90;;;;;;4980174;28;20191;-83
2022/07/07 11:52:59;;;;;;;3.30;1.55;;;18.80;99.90;;;;;;4980543;28;20208;-89
2022/07/07 11:55:25;;;;;;;3.72;1.40;;;19.00;99.90;;;;;;4981292;28;20239;-86
2022/07/07 11:57:54;;;;;;;1.88;1.58;;;19.20;99.90;;;;;;4981991;28;20175;-92
2022/07/07 12:00:27;;;;;;;5.05;1.45;;;19.40;99.90;;;;;;4984234;28;20192;-87
2022/07/07 12:02:56;;;;;;;1.65;1.20;;;19.40;99.90;;;;;;4980421;28;20694;-87
2022/07/07 12:05:27;;;;;;;2.30;1.40;;;19.30;99.90;;;;;;4985571;28;20199;-89
2022/07/07 12:07:55;;;;;;;2.50;1.20;;;19.20;99.90;;;;;;4987975;28;20172;-86
2022/07/07 12:10:31;;;;;;;6.55;1.50;;;19.00;99.90;;;;;;4987930;28;20180;-90
2022/07/07 12:13:11;;;;;;;3.85;1.25;;;18.90;99.90;;;;;;4981402;28;20224;-86
2022/07/07 12:15:45;;;;;;;3.00;1.20;;;18.70;99.90;;;;;;4980506;28;20503;-89
2022/07/07 12:18:12;;;;;;;3.95;1.13;;;18.60;99.90;;;;;;4979957;28;20638;-92
2022/07/07 12:20:39;;;;;;;3.08;1.10;;;18.70;99.90;;;;;;4977199;28;20220;-89
2022/07/07 12:23:07;;;;;;;2.80;1.30;;;18.70;99.90;;;;;;4976972;28;20184;-89
2022/07/07 12:25:34;;;;;;;1.00;0.60;;;19.00;99.90;;;;;;4975876;28;20622;-91
2022/07/07 12:28:03;;;;;;;2.75;1.10;;;19.40;99.90;;;;;;4976731;28;20196;-92
2022/07/07 12:30:31;;;;;;;1.60;1.00;;;19.80;99.90;;;;;;4977166;28;20307;-95
2022/07/07 12:32:58;;;;;;;1.65;0.95;;;20.10;99.90;;;;;;4977115;28;20176;-91
2022/07/07 12:35:28;;;;;;;1.35;0.65;;;19.90;99.90;;;;;;4976757;28;20176;-93
2022/07/07 12:37:54;;;;;;;3.35;0.85;;;19.80;99.90;;;;;;4976424;28;20255;-92
2022/07/07 12:40:21;;;;;;;1.10;0.70;;;19.60;99.90;;;;;;4994016;28;20236;-90
2022/07/07 12:42:47;;;;;;;1.75;0.80;;;19.60;99.90;;;;;;4995402;28;20664;-88
2022/07/07 12:45:14;;;;;;;3.53;1.42;;;19.90;99.90;;;;;;4986924;28;20188;-89
2022/07/07 12:47:47;;;;;;;3.08;0.90;;;20.40;99.90;;;;;;4976345;28;20181;-88
2022/07/07 12:50:13;;;;;;;5.07;1.40;;;20.80;99.90;;;;;;4977686;28;20251;-87
2022/07/07 12:52:39;;;;;;;3.60;1.17;;;21.00;99.90;;;;;;4976345;28;20618;-87
2022/07/07 12:55:12;;;;;;;6.28;1.17;;;20.90;99.90;;;;;;4975757;28;20185;-86